Columbus/Rickenbacker ANGB, Ohio
Current Conditions -  °F | °C
As of 8:35 AM on Friday 31 Oct 2014 (Local Time) from KLCK Reporting Station
Overcast Overcast  
Wind Chill: 35°   Ceiling: 5500
Heat Index: 40°   Visibility: 10mi
Dew Point: 37°   Wind: 6mph
Humidity: 92%   Direction: 180°S
Pressure: 29.96"   Gusts: NA
Location:  39.82°N, 82.93°W
Report Text: KLCK 311235Z AUTO 18005KT 10SM OVC055 04/03 A2996 RMK AO2 T00420030
Loading
Personal Weather Stations






























Interactive Weather Map
Tropical Storm Tracking
New forecast layout! Learn more

10-Day Weather Forecast

Advertisements
Track Severe Weather on mobile